createdAt,value
2022-10-11T00:04:43.295Z,0.00
2022-10-11T00:09:43.245Z,0.00
2022-10-11T00:14:43.115Z,0.00
2022-10-11T00:19:43.066Z,0.00
2022-10-11T00:24:43.006Z,0.00
2022-10-11T00:29:42.962Z,0.00
2022-10-11T00:34:42.887Z,0.00
2022-10-11T00:39:42.807Z,0.00
2022-10-11T00:44:42.786Z,0.00
2022-10-11T00:49:42.736Z,0.00
2022-10-11T00:54:42.645Z,0.00
2022-10-11T00:59:42.738Z,0.00
2022-10-11T01:04:42.758Z,0.00
2022-10-11T01:09:42.601Z,0.00
2022-10-11T01:14:42.554Z,0.00
2022-10-11T01:19:42.469Z,0.00
2022-10-11T01:24:42.432Z,0.00
2022-10-11T01:29:42.357Z,0.00
2022-10-11T01:34:42.308Z,0.00
2022-10-11T01:39:42.278Z,0.00
2022-10-11T01:44:42.147Z,0.00
2022-10-11T01:49:42.062Z,0.00
2022-10-11T01:55:07.601Z,0.00
2022-10-11T01:59:42.978Z,0.00
2022-10-11T02:04:41.984Z,0.00
2022-10-11T02:09:43.002Z,0.00
2022-10-11T02:14:41.934Z,0.00
2022-10-11T02:19:41.741Z,0.00
2022-10-11T02:24:41.710Z,0.00
2022-10-11T02:29:42.672Z,0.00
2022-10-11T02:34:41.582Z,0.00
2022-10-11T02:39:41.527Z,0.00
2022-10-11T02:44:41.451Z,0.00
2022-10-11T02:49:41.429Z,0.00
2022-10-11T02:54:41.424Z,0.00
2022-10-11T02:59:41.387Z,0.00
2022-10-11T03:04:41.242Z,0.00
2022-10-11T03:09:41.274Z,0.00
2022-10-11T03:14:41.130Z,0.00
2022-10-11T03:19:41.250Z,0.00
2022-10-11T03:24:41.041Z,0.00
2022-10-11T03:29:41.003Z,0.00
2022-10-11T03:34:40.937Z,0.00
2022-10-11T03:39:40.877Z,0.00
2022-10-11T03:44:40.875Z,0.00
2022-10-11T03:49:43.767Z,0.00
2022-10-11T03:54:40.837Z,0.00
2022-10-11T03:59:40.754Z,0.00
2022-10-11T04:04:49.562Z,0.00
2022-10-11T04:09:40.631Z,0.00
2022-10-11T04:14:40.511Z,0.00
2022-10-11T04:19:40.616Z,0.00
2022-10-11T04:24:40.388Z,0.00
2022-10-11T04:29:40.337Z,0.00
2022-10-11T04:34:40.282Z,0.00
2022-10-11T04:39:40.215Z,0.00
2022-10-11T04:44:40.140Z,0.00
2022-10-11T04:49:40.106Z,0.00
2022-10-11T04:54:40.055Z,0.00
2022-10-11T04:59:41.063Z,0.00
2022-10-11T05:04:40.987Z,0.00
2022-10-11T05:09:40.005Z,0.00
2022-10-11T05:14:40.047Z,4.00
2022-10-11T05:19:39.882Z,4.00
2022-10-11T05:24:39.834Z,12.00
2022-10-11T05:29:39.760Z,32.00
2022-10-11T05:34:39.711Z,72.00
2022-10-11T05:39:39.564Z,156.00
2022-10-11T05:44:39.515Z,284.00
2022-10-11T05:49:39.643Z,460.00
2022-10-11T05:54:39.496Z,672.00
2022-10-11T05:59:40.673Z,940.00
2022-10-11T06:04:39.570Z,1212.00
2022-10-11T06:09:39.243Z,1472.00
2022-10-11T06:14:39.247Z,1764.00
2022-10-11T06:19:39.165Z,2064.00
2022-10-11T06:24:39.226Z,2364.00
2022-10-11T06:29:39.138Z,2720.00
2022-10-11T06:34:38.950Z,3052.00
2022-10-11T06:39:38.911Z,3368.00
2022-10-11T06:44:38.969Z,3612.00
2022-10-11T06:49:39.905Z,3944.00
2022-10-11T06:54:43.918Z,4456.00
2022-10-11T06:59:39.817Z,4796.00
2022-10-11T07:04:38.712Z,4980.00
2022-10-11T07:09:38.651Z,5020.00
2022-10-11T07:14:38.521Z,5064.00
2022-10-11T07:19:38.538Z,5252.00
2022-10-11T07:24:38.418Z,5636.00
2022-10-11T07:29:38.425Z,5692.00
2022-10-11T07:34:38.310Z,6264.00
2022-10-11T07:39:38.284Z,6852.00
2022-10-11T07:44:38.239Z,7492.00
2022-10-11T07:49:38.164Z,7608.00
2022-10-11T07:54:38.116Z,8832.00
2022-10-11T07:59:38.022Z,17120.00
2022-10-11T08:04:37.997Z,18880.00
2022-10-11T08:09:37.894Z,17856.00
2022-10-11T08:14:38.870Z,17280.00
2022-10-11T08:19:37.913Z,20512.00
2022-10-11T08:24:38.537Z,18976.00
2022-10-11T08:29:37.721Z,27104.00
2022-10-11T08:34:37.632Z,23296.00
2022-10-11T08:39:37.594Z,25024.00
2022-10-11T08:45:05.380Z,24192.00
2022-10-11T08:49:38.469Z,20512.00
2022-10-11T08:54:37.507Z,20000.00
2022-10-11T08:59:37.372Z,19680.00
2022-10-11T09:04:37.290Z,19552.00
2022-10-11T09:09:37.229Z,21440.00
2022-10-11T09:14:37.242Z,21504.00
2022-10-11T09:19:37.294Z,18432.00
2022-10-11T09:24:37.112Z,19904.00
2022-10-11T09:29:37.044Z,31840.00
2022-10-11T09:34:36.985Z,38208.00
2022-10-11T09:39:36.914Z,46432.00
2022-10-11T09:44:36.877Z,47072.00
2022-10-11T09:49:36.826Z,47456.00
2022-10-11T09:54:36.868Z,41312.00
2022-10-11T09:59:36.706Z,47104.00
2022-10-11T10:04:45.752Z,46816.00
2022-10-11T10:09:37.606Z,53664.00
2022-10-11T10:14:36.527Z,55584.00
2022-10-11T10:19:39.884Z,52288.00
2022-10-11T10:24:37.424Z,60960.00
2022-10-11T10:29:36.389Z,52352.00
2022-10-11T10:34:36.309Z,64416.00
2022-10-11T10:39:36.271Z,28672.00
2022-10-11T10:44:36.208Z,63200.00
2022-10-11T10:49:54.699Z,9692.00
2022-10-11T10:54:37.121Z,13272.00
2022-10-11T10:59:36.059Z,46272.00
2022-10-11T11:04:35.996Z,33920.00
2022-10-11T11:09:35.921Z,11020.00
2022-10-11T11:14:35.887Z,10176.00
2022-10-11T11:19:35.838Z,22976.00
2022-10-11T11:24:36.906Z,21792.00
2022-10-11T11:29:36.097Z,22240.00
2022-10-11T11:34:35.763Z,24000.00
2022-10-11T11:39:35.624Z,24032.00
2022-10-11T11:44:35.556Z,26016.00
2022-10-11T11:49:35.556Z,26016.00
2022-10-11T11:54:35.452Z,25856.00
2022-10-11T11:59:35.393Z,19008.00
2022-10-11T12:04:35.343Z,13724.00
2022-10-11T12:09:35.292Z,11472.00
2022-10-11T12:14:35.229Z,9900.00
2022-10-11T12:19:35.194Z,11552.00
2022-10-11T12:24:35.139Z,14196.00
2022-10-11T12:29:35.106Z,16960.00
2022-10-11T12:34:35.054Z,16672.00
2022-10-11T12:39:34.953Z,16576.00
2022-10-11T12:44:34.898Z,11868.00
2022-10-11T12:49:35.021Z,7420.00
2022-10-11T12:54:37.245Z,6736.00
2022-10-11T12:59:34.731Z,6732.00
2022-10-11T13:04:34.691Z,6080.00
2022-10-11T13:09:34.634Z,6004.00
2022-10-11T13:14:34.740Z,6520.00
2022-10-11T13:19:34.553Z,7368.00
2022-10-11T13:24:34.452Z,7880.00
2022-10-11T13:29:34.415Z,9948.00
2022-10-11T13:34:35.346Z,11232.00
2022-10-11T13:39:34.323Z,10268.00
2022-10-11T13:44:34.263Z,7936.00
2022-10-11T13:49:34.201Z,8860.00
2022-10-11T13:54:34.121Z,7896.00
2022-10-11T13:59:34.220Z,7460.00
2022-10-11T14:04:34.448Z,6836.00
2022-10-11T14:09:33.943Z,5484.00
2022-10-11T14:14:33.990Z,4960.00
2022-10-11T14:19:33.925Z,4816.00
2022-10-11T14:24:33.884Z,4540.00
2022-10-11T14:29:33.729Z,4332.00
2022-10-11T14:34:33.673Z,4204.00
2022-10-11T14:39:33.627Z,4120.00
2022-10-11T14:44:34.666Z,4224.00
2022-10-11T14:49:33.570Z,4164.00
2022-10-11T14:54:35.477Z,4536.00
2022-10-11T14:59:33.414Z,4232.00
2022-10-11T15:04:33.356Z,3780.00
2022-10-11T15:09:33.295Z,3604.00
2022-10-11T15:14:33.279Z,3488.00
2022-10-11T15:19:33.224Z,3352.00
2022-10-11T15:24:33.125Z,3272.00
2022-10-11T15:29:33.096Z,3196.00
2022-10-11T15:34:33.013Z,3108.00
2022-10-11T15:39:32.965Z,2988.00
2022-10-11T15:44:32.914Z,2852.00
2022-10-11T15:49:36.234Z,2700.00
2022-10-11T15:54:32.889Z,2536.00
2022-10-11T15:59:32.844Z,2368.00
2022-10-11T16:04:32.788Z,2176.00
2022-10-11T16:09:32.617Z,1980.00
2022-10-11T16:14:32.567Z,1772.00
2022-10-11T16:19:32.498Z,1548.00
2022-10-11T16:24:32.541Z,1316.00
2022-10-11T16:29:32.388Z,1072.00
2022-10-11T16:34:32.408Z,836.00
2022-10-11T16:39:32.460Z,616.00
2022-10-11T16:44:32.449Z,420.00
2022-10-11T16:49:32.168Z,256.00
2022-10-11T16:54:32.116Z,144.00
2022-10-11T16:59:32.044Z,68.00
2022-10-11T17:04:32.138Z,32.00
2022-10-11T17:09:31.995Z,12.00
2022-10-11T17:14:31.926Z,4.00
2022-10-11T17:19:32.886Z,4.00
2022-10-11T17:24:31.929Z,0.00
2022-10-11T17:29:31.753Z,0.00
2022-10-11T17:34:31.687Z,0.00
2022-10-11T17:39:31.622Z,0.00
2022-10-11T17:44:31.650Z,0.00
2022-10-11T17:49:31.591Z,0.00
2022-10-11T17:54:31.564Z,0.00
2022-10-11T17:59:31.590Z,0.00
2022-10-11T18:04:31.540Z,0.00
2022-10-11T18:09:31.490Z,0.00
2022-10-11T18:14:31.414Z,0.00
2022-10-11T18:19:31.188Z,0.00
2022-10-11T18:24:31.126Z,0.00
2022-10-11T18:29:31.114Z,0.00
2022-10-11T18:34:31.115Z,0.00
2022-10-11T18:39:30.977Z,0.00
2022-10-11T18:44:30.926Z,0.00
2022-10-11T18:49:30.889Z,0.00
2022-10-11T18:54:30.829Z,0.00
2022-10-11T18:59:32.816Z,0.00
2022-10-11T19:04:30.815Z,0.00
2022-10-11T19:09:30.756Z,0.00
2022-10-11T19:14:30.675Z,0.00
2022-10-11T19:19:30.643Z,0.00
2022-10-11T19:24:30.472Z,0.00
2022-10-11T19:29:30.388Z,0.00
2022-10-11T19:34:30.350Z,0.00
2022-10-11T19:39:32.460Z,0.00
2022-10-11T19:44:31.753Z,0.00
2022-10-11T19:49:30.281Z,0.00
2022-10-11T19:54:30.121Z,0.00
2022-10-11T19:59:30.117Z,0.00
2022-10-11T20:09:31.271Z,0.00
2022-10-11T20:14:30.007Z,0.00
2022-10-11T20:19:31.384Z,0.00
2022-10-11T20:24:29.956Z,0.00
2022-10-11T20:29:29.770Z,0.00
2022-10-11T20:34:29.723Z,0.00
2022-10-11T20:39:29.670Z,0.00
2022-10-11T20:44:29.710Z,0.00
2022-10-11T20:49:29.746Z,0.00
2022-10-11T20:54:29.483Z,0.00
2022-10-11T20:59:29.637Z,0.00
2022-10-11T21:04:29.387Z,0.00
2022-10-11T21:09:29.322Z,0.00
2022-10-11T21:14:29.298Z,0.00
2022-10-11T21:19:29.304Z,0.00
2022-10-11T21:24:29.199Z,0.00
2022-10-11T21:29:29.272Z,0.00
2022-10-11T21:34:29.062Z,0.00
2022-10-11T21:39:29.012Z,0.00
2022-10-11T21:44:28.935Z,0.00
2022-10-11T21:49:29.039Z,0.00
2022-10-11T21:54:31.019Z,0.00
2022-10-11T21:59:28.776Z,0.00
2022-10-11T22:40:10.438Z,0.00
2022-10-11T22:45:11.505Z,0.00
2022-10-11T22:50:10.521Z,0.00
2022-10-11T22:55:10.391Z,0.00
2022-10-11T23:00:10.310Z,0.00
2022-10-11T23:05:10.138Z,0.00
2022-10-11T23:10:10.067Z,0.00
2022-10-11T23:15:10.028Z,0.00
2022-10-11T23:20:09.932Z,0.00
2022-10-11T23:25:10.982Z,0.00
2022-10-11T23:30:09.984Z,0.00
2022-10-11T23:35:09.999Z,0.00
2022-10-11T23:40:09.732Z,0.00
2022-10-11T23:45:09.730Z,0.00
2022-10-11T23:50:09.594Z,0.00
2022-10-11T23:55:09.563Z,0.00
